Pagrindinis puslapis
METAR-TAF:

METAR-TAF

Oro uostai :

Esbjergas, Danija

platuma: 55-32N, ilguma: 008-34E, Aukštis: 30 m

Dabartinis oras

Ataskaita buvo paskelbta 32 minutes, ne 10:20 UTC
Vėjas 21 kt iš Vakarų/Šiaurės Vakarų
Temperatūra 14°C
Drėgmė 94%
Slėgis 1005 hPa
Matomumas: 3900 m
lietus, rūkana

METAR: EKEB 231020Z AUTO 29021KT 3900 RA BR BKN005/// 14/13 Q1005

Laikas: 12:52 (10:52 UTC)

Prognozė

Ataskaita buvo paskelbta 2 valandos ir 29 minutes, ne 08:23 UTC
Prognozė galioja nuo 23 metu 09 UTC su 23 metu 18 UTC
Vėjas 20 kt iš Vakarų/Pietvakarių
Matomumas 10 km arba daugiau
Su prošvaistėmis ne aukštis 1800 ft
Laikinai
nuo 23 metu 09 UTC su 23 metu 15 UTC
Vėjas 22 kt iš Vakarų/Šiaurės Vakarų su gūsio iki 40 kt
Su prošvaistėmis ne aukštis 700 ft
lietus

TAF: EKEB 230823Z 2309/2318 25020KT 9999 BKN018 TEMPO 2309/2315 30022G40KT RA BKN007

Orai ataskaitas ir orų prognozės (METAR, TAF).

turimą stotys yra geltonos ir raudonos taškus žemėlapyje.

Perkelti pele per norėdami pamatyti stoties vardą.

Tada spustelėkite, norėdami matyti oro stebėjimo ir prognozės.

Norėdami pakeisti žemėlapį: spustelėkite ant žalios mygtukų su juodo kryžiaus žemyn,; žalią mygtuką su brūkšneliu, jei norite nutolinti; arba žalių rodyklių gretimoms žemėlapius.


METAR-TAF: